createdAt,value
2023-01-29T00:00:16.661Z,1026.16
2023-01-29T00:01:16.305Z,1026.15
2023-01-29T00:02:16.316Z,1026.20
2023-01-29T00:03:16.326Z,1026.16
2023-01-29T00:04:16.271Z,1026.09
2023-01-29T00:05:27.399Z,1026.11
2023-01-29T00:06:16.260Z,1026.09
2023-01-29T00:07:16.276Z,1026.06
2023-01-29T00:08:16.258Z,1026.06
2023-01-29T00:09:16.253Z,1026.09
2023-01-29T00:10:16.636Z,1026.08
2023-01-29T00:11:16.223Z,1026.07
2023-01-29T00:12:16.229Z,1026.06
2023-01-29T00:13:16.219Z,1026.06
2023-01-29T00:14:16.252Z,1026.07
2023-01-29T00:15:16.231Z,1026.03
2023-01-29T00:16:16.187Z,1026.06
2023-01-29T00:17:16.275Z,1026.02
2023-01-29T00:18:16.164Z,1026.09
2023-01-29T00:19:16.174Z,1026.04
2023-01-29T00:20:16.404Z,1026.03
2023-01-29T00:21:16.167Z,1026.02
2023-01-29T00:22:16.151Z,1026.02
2023-01-29T00:23:16.146Z,1025.95
2023-01-29T00:24:16.314Z,1025.97
2023-01-29T00:25:16.121Z,1025.94
2023-01-29T00:26:16.125Z,1025.90
2023-01-29T00:27:16.107Z,1025.90
2023-01-29T00:28:16.111Z,1025.89
2023-01-29T00:29:16.101Z,1025.82
2023-01-29T00:30:16.310Z,1025.85
2023-01-29T00:31:16.275Z,1025.85
2023-01-29T00:32:16.256Z,1025.85
2023-01-29T00:33:16.069Z,1025.89
2023-01-29T00:34:16.047Z,1025.91
2023-01-29T00:35:16.071Z,1025.92
2023-01-29T00:36:16.027Z,1025.89
2023-01-29T00:37:16.025Z,1025.90
2023-01-29T00:38:16.020Z,1025.90
2023-01-29T00:39:16.014Z,1025.87
2023-01-29T00:40:16.448Z,1025.85
2023-01-29T00:41:15.994Z,1025.83
2023-01-29T00:42:15.983Z,1025.80
2023-01-29T00:43:15.989Z,1025.78
2023-01-29T00:44:15.974Z,1025.80
2023-01-29T00:45:15.979Z,1025.78
2023-01-29T00:46:16.014Z,1025.75
2023-01-29T00:47:15.984Z,1025.77
2023-01-29T00:48:15.949Z,1025.74
2023-01-29T00:49:15.941Z,1025.69
2023-01-29T00:50:16.338Z,1025.66
2023-01-29T00:51:15.928Z,1025.66
2023-01-29T00:52:15.908Z,1025.63
2023-01-29T00:53:15.908Z,1025.61
2023-01-29T00:54:15.892Z,1025.58
2023-01-29T00:55:15.890Z,1025.62
2023-01-29T00:56:15.880Z,1025.60
2023-01-29T00:57:15.888Z,1025.60
2023-01-29T00:58:15.864Z,1025.68
2023-01-29T00:59:15.862Z,1025.63
2023-01-29T01:00:16.246Z,1025.66
2023-01-29T01:01:15.919Z,1025.64
2023-01-29T01:02:15.961Z,1025.64
2023-01-29T01:03:15.853Z,1025.68
2023-01-29T01:04:15.840Z,1025.67
2023-01-29T01:05:15.823Z,1025.67
2023-01-29T01:06:15.814Z,1025.69
2023-01-29T01:07:15.822Z,1025.65
2023-01-29T01:08:15.797Z,1025.73
2023-01-29T01:09:15.794Z,1025.74
2023-01-29T01:10:16.166Z,1025.69
2023-01-29T01:11:15.775Z,1025.67
2023-01-29T01:12:15.753Z,1025.63
2023-01-29T01:13:15.783Z,1025.64
2023-01-29T01:14:15.758Z,1025.65
2023-01-29T01:15:15.739Z,1025.65
2023-01-29T01:16:15.806Z,1025.69
2023-01-29T01:17:15.735Z,1025.69
2023-01-29T01:18:15.733Z,1025.68
2023-01-29T01:19:15.741Z,1025.71
2023-01-29T01:20:16.134Z,1025.68
2023-01-29T01:21:15.709Z,1025.69
2023-01-29T01:22:15.700Z,1025.65
2023-01-29T01:23:15.676Z,1025.59
2023-01-29T01:24:15.753Z,1025.54
2023-01-29T01:25:15.670Z,1025.56
2023-01-29T01:26:15.654Z,1025.57
2023-01-29T01:27:15.660Z,1025.54
2023-01-29T01:28:15.641Z,1025.51
2023-01-29T01:29:15.654Z,1025.54
2023-01-29T01:30:16.053Z,1025.55
2023-01-29T01:31:15.774Z,1025.55
2023-01-29T01:32:15.630Z,1025.54
2023-01-29T01:33:15.618Z,1025.60
2023-01-29T01:34:15.593Z,1025.65
2023-01-29T01:35:15.625Z,1025.68
2023-01-29T01:36:15.587Z,1025.70
2023-01-29T01:37:15.593Z,1025.68
2023-01-29T01:38:15.571Z,1025.67
2023-01-29T01:39:15.567Z,1025.72
2023-01-29T01:40:15.895Z,1025.73
2023-01-29T01:41:15.567Z,1025.70
2023-01-29T01:42:15.599Z,1025.74
2023-01-29T01:43:15.584Z,1025.74
2023-01-29T01:44:15.517Z,1025.73
2023-01-29T01:45:15.518Z,1025.77
2023-01-29T01:46:15.506Z,1025.79
2023-01-29T01:47:15.522Z,1025.73
2023-01-29T01:48:15.509Z,1025.77
2023-01-29T01:49:15.499Z,1025.73
2023-01-29T01:50:15.766Z,1025.74
2023-01-29T01:51:15.491Z,1025.75
2023-01-29T01:52:15.457Z,1025.67
2023-01-29T01:53:15.459Z,1025.70
2023-01-29T01:54:15.467Z,1025.68
2023-01-29T01:55:15.464Z,1025.69
2023-01-29T01:56:15.443Z,1025.68
2023-01-29T01:57:15.431Z,1025.64
2023-01-29T01:58:15.419Z,1025.61
2023-01-29T01:59:15.412Z,1025.61
2023-01-29T02:00:15.771Z,1025.55
2023-01-29T02:01:15.492Z,1025.57
2023-01-29T02:02:15.423Z,1025.54
2023-01-29T02:03:15.395Z,1025.53
2023-01-29T02:04:15.386Z,1025.54
2023-01-29T02:05:15.371Z,1025.51
2023-01-29T02:06:15.372Z,1025.50
2023-01-29T02:07:15.373Z,1025.49
2023-01-29T02:08:15.357Z,1025.48
2023-01-29T02:09:15.351Z,1025.42
2023-01-29T02:10:15.715Z,1025.41
2023-01-29T02:11:15.343Z,1025.42
2023-01-29T02:12:15.313Z,1025.41
2023-01-29T02:13:15.323Z,1025.41
2023-01-29T02:14:15.315Z,1025.43
2023-01-29T02:15:15.347Z,1025.43
2023-01-29T02:16:15.300Z,1025.48
2023-01-29T02:17:15.346Z,1025.50
2023-01-29T02:18:15.269Z,1025.51
2023-01-29T02:19:15.281Z,1025.54
2023-01-29T02:20:15.668Z,1025.55
2023-01-29T02:21:15.272Z,1025.51
2023-01-29T02:22:15.255Z,1025.54
2023-01-29T02:23:15.256Z,1025.54
2023-01-29T02:24:15.340Z,1025.54
2023-01-29T02:25:15.237Z,1025.55
2023-01-29T02:26:15.210Z,1025.57
2023-01-29T02:27:15.243Z,1025.58
2023-01-29T02:28:15.200Z,1025.54
2023-01-29T02:29:15.205Z,1025.61
2023-01-29T02:30:15.653Z,1025.57
2023-01-29T02:31:15.294Z,1025.60
2023-01-29T02:32:15.180Z,1025.60
2023-01-29T02:33:15.175Z,1025.59
2023-01-29T02:34:15.159Z,1025.60
2023-01-29T02:35:15.165Z,1025.61
2023-01-29T02:36:15.153Z,1025.62
2023-01-29T02:37:15.151Z,1025.61
2023-01-29T02:38:15.139Z,1025.63
2023-01-29T02:39:15.152Z,1025.63
2023-01-29T02:40:15.480Z,1025.67
2023-01-29T02:41:15.105Z,1025.65
2023-01-29T02:42:15.117Z,1025.67
2023-01-29T02:43:15.094Z,1025.68
2023-01-29T02:44:15.093Z,1025.66
2023-01-29T02:45:15.077Z,1025.68
2023-01-29T02:46:15.156Z,1025.64
2023-01-29T02:47:15.064Z,1025.63
2023-01-29T02:48:15.054Z,1025.63
2023-01-29T02:49:15.069Z,1025.62
2023-01-29T02:50:15.420Z,1025.65
2023-01-29T02:51:15.045Z,1025.67
2023-01-29T02:52:15.051Z,1025.72
2023-01-29T02:53:15.031Z,1025.74
2023-01-29T02:54:15.034Z,1025.72
2023-01-29T02:55:15.044Z,1025.73
2023-01-29T02:56:15.013Z,1025.79
2023-01-29T02:57:15.007Z,1025.76
2023-01-29T02:58:14.986Z,1025.80
2023-01-29T02:59:14.973Z,1025.80
2023-01-29T03:00:15.326Z,1025.82
2023-01-29T03:01:14.977Z,1025.80
2023-01-29T03:02:15.038Z,1025.78
2023-01-29T03:03:14.960Z,1025.81
2023-01-29T03:04:14.943Z,1025.85
2023-01-29T03:05:14.932Z,1025.87
2023-01-29T03:06:14.937Z,1025.91
2023-01-29T03:07:14.930Z,1025.90
2023-01-29T03:08:14.915Z,1025.95
2023-01-29T03:09:14.905Z,1026.00
2023-01-29T03:10:15.325Z,1025.99
2023-01-29T03:11:14.940Z,1026.04
2023-01-29T03:12:14.897Z,1026.07
2023-01-29T03:13:14.888Z,1026.10
2023-01-29T03:14:14.882Z,1026.10
2023-01-29T03:15:14.860Z,1026.10
2023-01-29T03:16:14.928Z,1026.09
2023-01-29T03:17:14.845Z,1026.11
2023-01-29T03:18:14.853Z,1026.11
2023-01-29T03:19:14.827Z,1026.10
2023-01-29T03:20:15.374Z,1026.11
2023-01-29T03:21:14.814Z,1026.05
2023-01-29T03:22:14.833Z,1026.02
2023-01-29T03:23:14.804Z,1025.96
2023-01-29T03:24:14.823Z,1025.94
2023-01-29T03:25:14.785Z,1025.85
2023-01-29T03:26:14.792Z,1025.89
2023-01-29T03:27:14.788Z,1025.86
2023-01-29T03:28:14.769Z,1025.84
2023-01-29T03:29:14.758Z,1025.83
2023-01-29T03:30:15.225Z,1025.83
2023-01-29T03:31:14.834Z,1025.80
2023-01-29T03:32:14.800Z,1025.79
2023-01-29T03:33:14.730Z,1025.79
2023-01-29T03:34:14.735Z,1025.77
2023-01-29T03:35:14.716Z,1025.75
2023-01-29T03:36:14.710Z,1025.75
2023-01-29T03:37:14.697Z,1025.72
2023-01-29T03:38:14.703Z,1025.65
2023-01-29T03:39:14.686Z,1025.60
2023-01-29T03:40:15.321Z,1025.58
2023-01-29T03:41:14.665Z,1025.58
2023-01-29T03:42:14.676Z,1025.59
2023-01-29T03:43:14.676Z,1025.60
2023-01-29T03:44:14.671Z,1025.60
2023-01-29T03:45:14.644Z,1025.63
2023-01-29T03:46:14.657Z,1025.61
2023-01-29T03:47:14.626Z,1025.63
2023-01-29T03:48:14.626Z,1025.63
2023-01-29T03:49:14.627Z,1025.64
2023-01-29T03:50:14.935Z,1025.66
2023-01-29T03:51:14.611Z,1025.66
2023-01-29T03:52:14.598Z,1025.66
2023-01-29T03:53:14.599Z,1025.64
2023-01-29T03:54:14.597Z,1025.64
2023-01-29T03:55:14.569Z,1025.67
2023-01-29T03:56:14.565Z,1025.67
2023-01-29T03:57:14.553Z,1025.69
2023-01-29T03:58:14.552Z,1025.69
2023-01-29T03:59:14.551Z,1025.71
2023-01-29T04:00:14.933Z,1025.75
2023-01-29T04:01:14.604Z,1025.78
2023-01-29T04:02:14.537Z,1025.78
2023-01-29T04:03:14.520Z,1025.79
2023-01-29T04:04:14.533Z,1025.80
2023-01-29T04:05:14.507Z,1025.82
2023-01-29T04:06:14.501Z,1025.80
2023-01-29T04:07:14.494Z,1025.81
2023-01-29T04:08:14.486Z,1025.79
2023-01-29T04:09:14.464Z,1025.82
2023-01-29T04:10:14.843Z,1025.79
2023-01-29T04:11:14.463Z,1025.76
2023-01-29T04:12:14.451Z,1025.79
2023-01-29T04:13:14.459Z,1025.77
2023-01-29T04:14:14.447Z,1025.71
2023-01-29T04:15:14.433Z,1025.71
2023-01-29T04:16:14.489Z,1025.74
2023-01-29T04:17:14.417Z,1025.72
2023-01-29T04:18:14.411Z,1025.70
2023-01-29T04:19:14.411Z,1025.68
2023-01-29T04:20:14.889Z,1025.66
2023-01-29T04:21:14.430Z,1025.69
2023-01-29T04:22:14.387Z,1025.67
2023-01-29T04:23:14.361Z,1025.68
2023-01-29T04:24:14.408Z,1025.67
2023-01-29T04:25:14.355Z,1025.59
2023-01-29T04:26:14.361Z,1025.52
2023-01-29T04:27:14.336Z,1025.51
2023-01-29T04:28:14.332Z,1025.51
2023-01-29T04:29:14.336Z,1025.49
2023-01-29T04:30:14.515Z,1025.50
2023-01-29T04:31:14.437Z,1025.48
2023-01-29T04:32:14.304Z,1025.42
2023-01-29T04:33:14.294Z,1025.39
2023-01-29T04:34:14.301Z,1025.35
2023-01-29T04:35:14.275Z,1025.35
2023-01-29T04:36:14.275Z,1025.34
2023-01-29T04:37:14.274Z,1025.31
2023-01-29T04:38:14.266Z,1025.33
2023-01-29T04:39:14.293Z,1025.34
2023-01-29T04:40:14.697Z,1025.33
2023-01-29T04:41:14.253Z,1025.33
2023-01-29T04:42:14.235Z,1025.33
2023-01-29T04:43:14.240Z,1025.33
2023-01-29T04:44:14.219Z,1025.31
2023-01-29T04:45:14.216Z,1025.28
2023-01-29T04:46:14.201Z,1025.33
2023-01-29T04:47:14.268Z,1025.30
2023-01-29T04:48:14.191Z,1025.34
2023-01-29T04:49:14.186Z,1025.26
2023-01-29T04:50:14.720Z,1025.30
2023-01-29T04:51:14.182Z,1025.29
2023-01-29T04:52:14.169Z,1025.28
2023-01-29T04:54:00.110Z,1025.32
2023-01-29T04:55:00.106Z,1025.36
2023-01-29T04:56:00.106Z,1025.37
2023-01-29T04:57:00.088Z,1025.37
2023-01-29T04:58:00.058Z,1025.40
2023-01-29T04:59:00.050Z,1025.37
2023-01-29T05:00:00.045Z,1025.35
2023-01-29T05:01:00.038Z,1025.34
2023-01-29T05:02:00.058Z,1025.29
2023-01-29T05:03:00.060Z,1025.28
2023-01-29T05:04:00.003Z,1025.30
2023-01-29T05:04:59.996Z,1025.27
2023-01-29T05:05:59.990Z,1025.22
2023-01-29T05:06:59.982Z,1025.17
2023-01-29T05:07:59.987Z,1025.12
2023-01-29T05:08:59.994Z,1025.07
2023-01-29T05:09:59.992Z,1025.08
2023-01-29T05:10:59.960Z,1025.05
2023-01-29T05:11:59.940Z,1025.06
2023-01-29T05:12:59.955Z,1025.11
2023-01-29T05:13:59.934Z,1025.13
2023-01-29T05:14:59.937Z,1025.08
2023-01-29T05:16:00.008Z,1025.06
2023-01-29T05:16:59.927Z,1025.05
2023-01-29T05:17:59.898Z,1025.04
2023-01-29T05:18:59.904Z,1025.02
2023-01-29T05:19:59.904Z,1025.04
2023-01-29T05:20:59.883Z,1025.05
2023-01-29T05:21:59.883Z,1025.08
2023-01-29T05:22:59.883Z,1025.13
2023-01-29T05:23:59.903Z,1025.21
2023-01-29T05:24:59.869Z,1025.23
2023-01-29T05:25:59.846Z,1025.22
2023-01-29T05:26:59.854Z,1025.22
2023-01-29T05:28:02.481Z,1025.20
2023-01-29T05:28:59.827Z,1025.23
2023-01-29T05:29:59.825Z,1025.26
2023-01-29T05:30:59.917Z,1025.26
2023-01-29T05:31:59.923Z,1025.16
2023-01-29T05:32:59.792Z,1025.15
2023-01-29T05:33:59.809Z,1025.14
2023-01-29T05:34:59.777Z,1025.08
2023-01-29T05:35:59.824Z,1025.08
2023-01-29T05:36:59.770Z,1025.06
2023-01-29T05:37:59.755Z,1025.08
2023-01-29T05:38:59.758Z,1025.05
2023-01-29T05:39:59.740Z,1025.06
2023-01-29T05:40:59.759Z,1025.05
2023-01-29T05:41:59.737Z,1025.09
2023-01-29T05:42:59.735Z,1025.10
2023-01-29T05:43:59.713Z,1025.07
2023-01-29T05:44:59.837Z,1025.06
2023-01-29T05:45:59.716Z,1025.09
2023-01-29T05:46:59.703Z,1025.09
2023-01-29T05:47:59.691Z,1025.05
2023-01-29T05:48:59.695Z,1025.05
2023-01-29T05:49:59.687Z,1025.08
2023-01-29T05:50:59.680Z,1025.06
2023-01-29T05:51:59.671Z,1025.09
2023-01-29T05:52:59.667Z,1025.09
2023-01-29T05:53:59.639Z,1025.04
2023-01-29T05:54:59.656Z,1025.06
2023-01-29T05:55:59.642Z,1025.04
2023-01-29T05:56:59.621Z,1025.03
2023-01-29T05:57:59.608Z,1025.02
2023-01-29T05:58:59.620Z,1025.05
2023-01-29T05:59:59.600Z,1025.05
2023-01-29T06:00:59.590Z,1025.06
2023-01-29T06:01:59.663Z,1025.08
2023-01-29T06:02:59.617Z,1025.09
2023-01-29T06:03:59.568Z,1025.08
2023-01-29T06:04:59.577Z,1025.05
2023-01-29T06:05:59.563Z,1025.07
2023-01-29T06:06:59.560Z,1025.10
2023-01-29T06:07:59.545Z,1025.13
2023-01-29T06:08:59.565Z,1025.14
2023-01-29T06:09:59.518Z,1025.14
2023-01-29T06:10:59.525Z,1025.13
2023-01-29T06:11:59.505Z,1025.13
2023-01-29T06:12:59.506Z,1025.11
2023-01-29T06:13:59.502Z,1025.15
2023-01-29T06:14:59.489Z,1025.15
2023-01-29T06:15:59.532Z,1025.18
2023-01-29T06:16:59.494Z,1025.15
2023-01-29T06:17:59.473Z,1025.14
2023-01-29T06:18:59.472Z,1025.09
2023-01-29T06:19:59.480Z,1025.14
2023-01-29T06:20:59.458Z,1025.06
2023-01-29T06:21:59.449Z,1025.11
2023-01-29T06:22:59.434Z,1025.14
2023-01-29T06:23:59.497Z,1025.14
2023-01-29T06:24:59.420Z,1025.12
2023-01-29T06:25:59.419Z,1025.11
2023-01-29T06:26:59.407Z,1025.09
2023-01-29T06:27:59.690Z,1025.12
2023-01-29T06:28:59.394Z,1025.10
2023-01-29T06:29:59.391Z,1025.10
2023-01-29T06:31:08.314Z,1025.11
2023-01-29T06:31:59.543Z,1025.11
2023-01-29T06:32:59.366Z,1025.08
2023-01-29T06:33:59.367Z,1025.11
2023-01-29T06:34:59.356Z,1025.16
2023-01-29T06:35:59.353Z,1025.16
2023-01-29T06:36:59.319Z,1025.17
2023-01-29T06:37:59.333Z,1025.20
2023-01-29T06:38:59.311Z,1025.28
2023-01-29T06:39:59.310Z,1025.24
2023-01-29T06:40:59.308Z,1025.26
2023-01-29T06:41:59.285Z,1025.28
2023-01-29T06:42:59.274Z,1025.34
2023-01-29T06:43:59.311Z,1025.42
2023-01-29T06:44:59.267Z,1025.47
2023-01-29T06:45:59.312Z,1025.50
2023-01-29T06:46:59.262Z,1025.52
2023-01-29T06:48:01.325Z,1025.58
2023-01-29T06:48:59.240Z,1025.58
2023-01-29T06:49:59.228Z,1025.62
2023-01-29T06:50:59.236Z,1025.65
2023-01-29T06:51:59.220Z,1025.67
2023-01-29T06:52:59.220Z,1025.72
2023-01-29T06:53:59.218Z,1025.75
2023-01-29T06:54:59.205Z,1025.75
2023-01-29T06:55:59.217Z,1025.77
2023-01-29T06:56:59.176Z,1025.77
2023-01-29T06:57:59.180Z,1025.75
2023-01-29T06:58:59.173Z,1025.72
2023-01-29T06:59:59.157Z,1025.73
2023-01-29T07:00:59.265Z,1025.71
2023-01-29T07:01:59.151Z,1025.70
2023-01-29T07:02:59.132Z,1025.69
2023-01-29T07:03:59.138Z,1025.70
2023-01-29T07:04:59.120Z,1025.64
2023-01-29T07:05:59.115Z,1025.64
2023-01-29T07:06:59.099Z,1025.63
2023-01-29T07:07:59.120Z,1025.61
2023-01-29T07:08:59.087Z,1025.64
2023-01-29T07:09:59.085Z,1025.55
2023-01-29T07:10:59.086Z,1025.56
2023-01-29T07:11:59.084Z,1025.53
2023-01-29T07:12:59.066Z,1025.55
2023-01-29T07:13:59.065Z,1025.55
2023-01-29T07:14:59.070Z,1025.57
2023-01-29T07:15:59.059Z,1025.55
2023-01-29T07:16:59.026Z,1025.53
2023-01-29T07:17:59.022Z,1025.57
2023-01-29T07:18:59.033Z,1025.54
2023-01-29T07:19:59.037Z,1025.55
2023-01-29T07:20:59.012Z,1025.53
2023-01-29T07:21:59.014Z,1025.53
2023-01-29T07:22:58.987Z,1025.51
2023-01-29T07:23:59.024Z,1025.51
2023-01-29T07:24:58.992Z,1025.52
2023-01-29T07:25:58.972Z,1025.50
2023-01-29T07:26:58.961Z,1025.52
2023-01-29T07:28:00.884Z,1025.58
2023-01-29T07:28:58.953Z,1025.59
2023-01-29T07:29:58.948Z,1025.62
2023-01-29T07:30:59.026Z,1025.59
2023-01-29T07:31:59.028Z,1025.56
2023-01-29T07:32:58.910Z,1025.56
2023-01-29T07:33:58.923Z,1025.55
2023-01-29T07:34:58.909Z,1025.56
2023-01-29T07:35:58.911Z,1025.57
2023-01-29T07:36:58.901Z,1025.60
2023-01-29T07:37:58.878Z,1025.57
2023-01-29T07:38:58.867Z,1025.61
2023-01-29T07:39:58.883Z,1025.58
2023-01-29T07:40:58.849Z,1025.59
2023-01-29T07:41:58.850Z,1025.60
2023-01-29T07:42:58.850Z,1025.57
2023-01-29T07:43:58.854Z,1025.55
2023-01-29T07:44:58.841Z,1025.52
2023-01-29T07:45:58.955Z,1025.50
2023-01-29T07:46:58.810Z,1025.43
2023-01-29T07:47:58.811Z,1025.47
2023-01-29T07:48:58.799Z,1025.56
2023-01-29T07:49:58.789Z,1025.59
2023-01-29T07:50:58.799Z,1025.61
2023-01-29T07:51:58.782Z,1025.63
2023-01-29T07:52:58.777Z,1025.60
2023-01-29T07:53:58.761Z,1025.62
2023-01-29T07:54:58.774Z,1025.61
2023-01-29T07:55:58.746Z,1025.59
2023-01-29T07:56:58.735Z,1025.60
2023-01-29T07:57:58.759Z,1025.59
2023-01-29T07:58:58.723Z,1025.51
2023-01-29T07:59:58.735Z,1025.51
2023-01-29T08:00:58.792Z,1025.47
2023-01-29T08:01:58.771Z,1025.46
2023-01-29T08:02:58.706Z,1025.47
2023-01-29T08:03:58.705Z,1025.46
2023-01-29T08:04:58.686Z,1025.42
2023-01-29T08:05:58.704Z,1025.44
2023-01-29T08:06:58.667Z,1025.45
2023-01-29T08:08:06.559Z,1025.39
2023-01-29T08:08:58.665Z,1025.33
2023-01-29T08:09:58.658Z,1025.34
2023-01-29T08:10:58.650Z,1025.42
2023-01-29T08:11:58.634Z,1025.40
2023-01-29T08:12:58.640Z,1025.43
2023-01-29T08:13:58.646Z,1025.41
2023-01-29T08:14:58.611Z,1025.47
2023-01-29T08:15:58.621Z,1025.48
2023-01-29T08:16:58.608Z,1025.47
2023-01-29T08:17:58.721Z,1025.48
2023-01-29T08:18:58.585Z,1025.46
2023-01-29T08:19:58.581Z,1025.47
2023-01-29T08:20:58.579Z,1025.47
2023-01-29T08:21:58.582Z,1025.42
2023-01-29T08:22:58.575Z,1025.37
2023-01-29T08:23:58.783Z,1025.33
2023-01-29T08:25:06.481Z,1025.31
2023-01-29T08:25:58.583Z,1025.37
2023-01-29T08:26:58.540Z,1025.41
2023-01-29T08:27:58.546Z,1025.43
2023-01-29T08:28:58.520Z,1025.41
2023-01-29T08:29:58.513Z,1025.39
2023-01-29T08:30:58.500Z,1025.43
2023-01-29T08:31:58.563Z,1025.49
2023-01-29T08:32:58.498Z,1025.47
2023-01-29T08:33:58.508Z,1025.47
2023-01-29T08:34:58.493Z,1025.47
2023-01-29T08:35:58.491Z,1025.49
2023-01-29T08:36:58.479Z,1025.53
2023-01-29T08:37:58.470Z,1025.52
2023-01-29T08:38:58.467Z,1025.53
2023-01-29T08:39:58.453Z,1025.51
2023-01-29T08:40:58.463Z,1025.52
2023-01-29T08:41:58.442Z,1025.54
2023-01-29T08:43:01.492Z,1025.50
2023-01-29T08:43:58.441Z,1025.47
2023-01-29T08:44:58.424Z,1025.47
2023-01-29T08:45:58.488Z,1025.44
2023-01-29T08:46:58.424Z,1025.46
2023-01-29T08:47:58.405Z,1025.51
2023-01-29T08:48:58.406Z,1025.49
2023-01-29T08:49:58.418Z,1025.45
2023-01-29T08:50:58.392Z,1025.45
2023-01-29T08:51:58.378Z,1025.41
2023-01-29T08:52:58.374Z,1025.42
2023-01-29T08:53:58.384Z,1025.38
2023-01-29T08:54:58.403Z,1025.38
2023-01-29T08:55:58.374Z,1025.42
2023-01-29T08:56:58.368Z,1025.43
2023-01-29T08:57:58.365Z,1025.44
2023-01-29T08:58:59.191Z,1025.40
2023-01-29T08:59:58.326Z,1025.39
2023-01-29T09:00:58.360Z,1025.37
2023-01-29T09:01:58.319Z,1025.41
2023-01-29T09:02:58.321Z,1025.32
2023-01-29T09:03:58.307Z,1025.32
2023-01-29T09:04:58.313Z,1025.32
2023-01-29T09:05:58.313Z,1025.38
2023-01-29T09:06:58.295Z,1025.44
2023-01-29T09:07:58.295Z,1025.49
2023-01-29T09:08:58.276Z,1025.50
2023-01-29T09:09:58.277Z,1025.49
2023-01-29T09:10:58.274Z,1025.43
2023-01-29T09:11:58.272Z,1025.39
2023-01-29T09:12:58.274Z,1025.36
2023-01-29T09:13:58.251Z,1025.36
2023-01-29T09:14:58.255Z,1025.38
2023-01-29T09:15:58.821Z,1025.35
2023-01-29T09:16:58.358Z,1025.40
2023-01-29T09:17:58.244Z,1025.37
2023-01-29T09:18:58.245Z,1025.33
2023-01-29T09:19:58.239Z,1025.36
2023-01-29T09:20:58.208Z,1025.39
2023-01-29T09:21:58.209Z,1025.32
2023-01-29T09:22:58.194Z,1025.33
2023-01-29T09:23:58.206Z,1025.33
2023-01-29T09:24:58.205Z,1025.33
2023-01-29T09:25:58.196Z,1025.30
2023-01-29T09:26:58.189Z,1025.25
2023-01-29T09:27:58.185Z,1025.20
2023-01-29T09:28:58.165Z,1025.22
2023-01-29T09:29:58.216Z,1025.23
2023-01-29T09:30:58.240Z,1025.23
2023-01-29T09:31:58.289Z,1025.21
2023-01-29T09:32:58.154Z,1025.22
2023-01-29T09:33:58.147Z,1025.21
2023-01-29T09:34:58.151Z,1025.18
2023-01-29T09:35:58.145Z,1025.15
2023-01-29T09:36:58.127Z,1025.09
2023-01-29T09:37:58.132Z,1025.08
2023-01-29T09:38:58.134Z,1025.04
2023-01-29T09:39:58.109Z,1025.03
2023-01-29T09:40:58.111Z,1025.04
2023-01-29T09:41:58.100Z,1025.06
2023-01-29T09:42:58.095Z,1025.07
2023-01-29T09:43:58.115Z,1025.08
2023-01-29T09:44:58.086Z,1025.10
2023-01-29T09:45:58.130Z,1025.12
2023-01-29T09:46:58.085Z,1025.07
2023-01-29T09:47:58.083Z,1025.08
2023-01-29T09:48:58.062Z,1025.06
2023-01-29T09:49:58.062Z,1025.00
2023-01-29T09:50:58.054Z,1025.00
2023-01-29T09:51:58.068Z,1024.99
2023-01-29T09:52:58.071Z,1025.00
2023-01-29T09:53:58.062Z,1025.00
2023-01-29T09:54:58.049Z,1025.02
2023-01-29T09:55:58.047Z,1024.98
2023-01-29T09:56:58.036Z,1024.98
2023-01-29T09:57:58.020Z,1024.98
2023-01-29T09:58:59.875Z,1024.95
2023-01-29T09:59:58.042Z,1024.96
2023-01-29T10:00:58.016Z,1024.96
2023-01-29T10:01:58.112Z,1024.97
2023-01-29T10:02:57.998Z,1024.90
2023-01-29T10:03:57.998Z,1024.86
2023-01-29T10:04:57.994Z,1024.85
2023-01-29T10:05:58.020Z,1024.84
2023-01-29T10:06:57.977Z,1024.88
2023-01-29T10:07:57.985Z,1024.82
2023-01-29T10:08:57.964Z,1024.72
2023-01-29T10:09:57.990Z,1024.71
2023-01-29T10:10:57.943Z,1024.69
2023-01-29T10:11:58.319Z,1024.69
2023-01-29T10:12:57.937Z,1024.74
2023-01-29T10:13:57.930Z,1024.75
2023-01-29T10:14:57.896Z,1024.74
2023-01-29T10:15:57.903Z,1024.74
2023-01-29T10:16:57.908Z,1024.74
2023-01-29T10:17:57.890Z,1024.75
2023-01-29T10:18:57.864Z,1024.70
2023-01-29T10:19:57.862Z,1024.70
2023-01-29T10:20:57.841Z,1024.61
2023-01-29T10:21:57.843Z,1024.59
2023-01-29T10:22:57.941Z,1024.60
2023-01-29T10:23:57.816Z,1024.64
2023-01-29T10:24:57.801Z,1024.68
2023-01-29T10:25:57.798Z,1024.71
2023-01-29T10:26:57.773Z,1024.73
2023-01-29T10:27:57.777Z,1024.71
2023-01-29T10:28:57.758Z,1024.74
2023-01-29T10:29:57.741Z,1024.74
2023-01-29T10:30:57.837Z,1024.69
2023-01-29T10:31:57.882Z,1024.69
2023-01-29T10:32:57.719Z,1024.71
2023-01-29T10:34:02.781Z,1024.65
2023-01-29T10:34:57.699Z,1024.67
2023-01-29T10:35:57.670Z,1024.72
2023-01-29T10:36:57.670Z,1024.70
2023-01-29T10:37:57.654Z,1024.77
2023-01-29T10:38:57.621Z,1024.78
2023-01-29T10:39:57.637Z,1024.75
2023-01-29T10:40:57.618Z,1024.72
2023-01-29T10:41:57.609Z,1024.69
2023-01-29T10:42:57.583Z,1024.65
2023-01-29T10:43:57.563Z,1024.69
2023-01-29T10:44:57.552Z,1024.64
2023-01-29T10:45:57.567Z,1024.61
2023-01-29T10:46:57.683Z,1024.63
2023-01-29T10:47:57.516Z,1024.62
2023-01-29T10:48:57.515Z,1024.61
2023-01-29T10:49:57.512Z,1024.65
2023-01-29T10:50:57.481Z,1024.66
2023-01-29T10:51:57.473Z,1024.62
2023-01-29T10:52:57.468Z,1024.63
2023-01-29T10:53:57.468Z,1024.65
2023-01-29T10:54:57.439Z,1024.54
2023-01-29T10:55:57.423Z,1024.51
2023-01-29T10:56:57.403Z,1024.51
2023-01-29T10:57:57.385Z,1024.46
2023-01-29T10:58:57.401Z,1024.45
2023-01-29T10:59:57.381Z,1024.39
2023-01-29T11:00:57.354Z,1024.39
2023-01-29T11:01:57.389Z,1024.33
2023-01-29T11:02:57.575Z,1024.36
2023-01-29T11:03:57.328Z,1024.34
2023-01-29T11:04:57.323Z,1024.33
2023-01-29T11:05:57.309Z,1024.34
2023-01-29T11:06:57.290Z,1024.34
2023-01-29T11:07:57.320Z,1024.30
2023-01-29T11:08:57.266Z,1024.26
2023-01-29T11:09:57.307Z,1024.28
2023-01-29T11:10:57.261Z,1024.22
2023-01-29T11:11:57.245Z,1024.19
2023-01-29T11:12:57.240Z,1024.15
2023-01-29T11:13:57.223Z,1024.15
2023-01-29T11:14:57.229Z,1024.09
2023-01-29T11:15:57.211Z,1024.08
2023-01-29T11:16:57.320Z,1024.09
2023-01-29T11:17:57.171Z,1024.09
2023-01-29T11:18:57.177Z,1023.99
2023-01-29T11:19:57.196Z,1024.02
2023-01-29T11:20:57.169Z,1023.95
2023-01-29T11:21:57.156Z,1023.94
2023-01-29T11:22:57.211Z,1023.95
2023-01-29T11:23:57.129Z,1023.96
2023-01-29T11:24:57.134Z,1023.86
2023-01-29T11:25:57.128Z,1023.84
2023-01-29T11:26:57.108Z,1023.81
2023-01-29T11:27:57.100Z,1023.79
2023-01-29T11:28:57.081Z,1023.83
2023-01-29T11:29:57.113Z,1023.84
2023-01-29T11:30:57.166Z,1023.85
2023-01-29T11:31:57.114Z,1023.88
2023-01-29T11:32:57.053Z,1023.87
2023-01-29T11:33:57.035Z,1023.91
2023-01-29T11:34:57.044Z,1023.86
2023-01-29T11:35:57.039Z,1023.83
2023-01-29T11:36:57.029Z,1023.81
2023-01-29T11:37:57.004Z,1023.79
2023-01-29T11:38:57.000Z,1023.80
2023-01-29T11:39:56.986Z,1023.75
2023-01-29T11:40:56.996Z,1023.72
2023-01-29T11:41:56.975Z,1023.72
2023-01-29T11:42:56.990Z,1023.72
2023-01-29T11:43:56.975Z,1023.67
2023-01-29T11:44:56.965Z,1023.67
2023-01-29T11:45:56.960Z,1023.68
2023-01-29T11:46:56.951Z,1023.64
2023-01-29T11:47:56.967Z,1023.67
2023-01-29T11:48:59.254Z,1023.64
2023-01-29T11:49:56.928Z,1023.64
2023-01-29T11:50:56.930Z,1023.63
2023-01-29T11:51:56.911Z,1023.62
2023-01-29T11:52:56.923Z,1023.61
2023-01-29T11:53:56.882Z,1023.63
2023-01-29T11:54:56.898Z,1023.60
2023-01-29T11:55:56.938Z,1023.54
2023-01-29T11:56:56.881Z,1023.54
2023-01-29T11:57:56.867Z,1023.51
2023-01-29T11:58:56.876Z,1023.50
2023-01-29T11:59:56.851Z,1023.52
2023-01-29T12:00:56.836Z,1023.55
2023-01-29T12:01:56.827Z,1023.52
2023-01-29T12:02:56.850Z,1023.46
2023-01-29T12:03:56.872Z,1023.46
2023-01-29T12:04:56.820Z,1023.40
2023-01-29T12:05:56.888Z,1023.42